Time;durP1;ratioP1;P1;durP2;ratioP2;P2;SDS_P1;SDS_P2;PMS_P1;PMS_P2;Temp;Humidity;BMP_temperature;BMP_pressure;BME280_temperature;BME280_humidity;BME280_pressure;Samples;Min_cycle;Max_cycle;Signal;HPM_P1;HPM_P2
2021/11/24 00:01:57;;;;;;;3.33;2.35;;;3.40;96.60;;;;;;4910579;29;20122;-93
2021/11/24 00:04:23;;;;;;;2.80;1.60;;;3.30;96.60;;;;;;4909435;29;20092;-93
2021/11/24 00:06:48;;;;;;;4.38;2.35;;;3.30;96.70;;;;;;4905151;29;20460;-93
2021/11/24 00:09:14;;;;;;;2.78;1.50;;;3.20;96.70;;;;;;4902013;29;20043;-93
2021/11/24 00:11:40;;;;;;;2.45;2.25;;;3.20;96.90;;;;;;4904928;29;20040;-93
2021/11/24 00:14:06;;;;;;;6.22;2.28;;;3.20;97.00;;;;;;4904685;29;20123;-93
2021/11/24 00:16:31;;;;;;;2.85;1.90;;;3.10;97.00;;;;;;4905045;29;20164;-93
2021/11/24 00:18:57;;;;;;;2.38;1.90;;;3.20;97.00;;;;;;4905150;29;20467;-93
2021/11/24 00:21:23;;;;;;;3.38;1.88;;;3.10;97.00;;;;;;4904929;29;20028;-93
2021/11/24 00:23:49;;;;;;;2.72;2.00;;;3.20;97.00;;;;;;4905318;29;20092;-94
2021/11/24 00:26:15;;;;;;;4.43;2.70;;;3.20;97.20;;;;;;4904946;29;20490;-93
2021/11/24 00:28:40;;;;;;;8.15;2.28;;;3.10;96.90;;;;;;4906051;29;20037;-93
2021/11/24 00:31:06;;;;;;;2.03;1.58;;;3.10;96.90;;;;;;4907080;29;20143;-93
2021/11/24 00:33:33;;;;;;;2.90;2.00;;;3.10;97.00;;;;;;4906131;29;20035;-93
2021/11/24 00:36:00;;;;;;;2.28;1.65;;;3.10;97.10;;;;;;4906840;29;20036;-93
2021/11/24 00:38:26;;;;;;;3.55;2.10;;;3.10;97.20;;;;;;4906230;29;20097;-92
2021/11/24 00:40:52;;;;;;;3.40;2.15;;;3.10;97.20;;;;;;4905808;29;20052;-92
2021/11/24 00:43:21;;;;;;;2.95;1.95;;;3.10;97.10;;;;;;4905316;29;20043;-92
2021/11/24 00:45:47;;;;;;;3.25;2.08;;;3.10;97.10;;;;;;4905280;29;20032;-93
2021/11/24 00:48:13;;;;;;;2.25;1.75;;;3.10;97.00;;;;;;4905009;29;20048;-92
2021/11/24 00:50:39;;;;;;;1.95;1.30;;;3.10;97.00;;;;;;4905602;29;20039;-93
2021/11/24 00:53:05;;;;;;;2.95;2.10;;;3.10;97.30;;;;;;4905618;29;20032;-93
2021/11/24 00:55:32;;;;;;;2.92;1.83;;;3.10;97.10;;;;;;4921239;29;20127;-92
2021/11/24 00:57:57;;;;;;;2.72;2.00;;;3.10;97.10;;;;;;4904260;29;20028;-93
2021/11/24 01:00:24;;;;;;;1.90;1.65;;;3.10;97.10;;;;;;4904899;29;20115;-93
2021/11/24 01:02:50;;;;;;;2.47;1.42;;;3.10;97.10;;;;;;4904889;29;20036;-93
2021/11/24 01:05:16;;;;;;;2.13;1.95;;;3.10;97.10;;;;;;4904798;29;20035;-93
2021/11/24 01:07:42;;;;;;;2.60;1.85;;;3.10;97.10;;;;;;4906365;29;20030;-92
2021/11/24 01:10:08;;;;;;;4.35;2.38;;;3.20;97.10;;;;;;4905073;29;20079;-93
2021/11/24 01:12:35;;;;;;;6.22;2.45;;;3.20;97.10;;;;;;4906913;29;20118;-93
2021/11/24 01:15:02;;;;;;;3.33;2.00;;;3.20;97.20;;;;;;4911575;29;20036;-92
2021/11/24 01:17:28;;;;;;;3.70;2.03;;;3.20;97.20;;;;;;4914435;29;20061;-92
2021/11/24 01:19:54;;;;;;;4.57;2.80;;;3.30;97.40;;;;;;4916552;29;20032;-93
2021/11/24 01:22:19;;;;;;;3.25;1.90;;;3.30;97.10;;;;;;4918972;29;20030;-93
2021/11/24 01:24:45;;;;;;;2.58;1.83;;;3.30;97.10;;;;;;4921172;29;20028;-93
2021/11/24 01:27:11;;;;;;;4.88;3.38;;;3.30;96.90;;;;;;4921283;29;20092;-92
2021/11/24 01:29:37;;;;;;;3.33;1.85;;;3.10;96.80;;;;;;4917408;29;20043;-92
2021/11/24 01:32:03;;;;;;;4.18;2.28;;;3.10;97.00;;;;;;4914141;29;20032;-93
2021/11/24 01:34:29;;;;;;;4.03;2.70;;;3.00;96.90;;;;;;4914392;29;20035;-93
2021/11/24 01:36:55;;;;;;;1.88;1.27;;;2.90;97.20;;;;;;4911236;29;20455;-92
2021/11/24 01:39:21;;;;;;;2.53;1.55;;;2.90;97.40;;;;;;4911978;29;20034;-93
2021/11/24 01:41:47;;;;;;;2.22;1.80;;;2.90;97.40;;;;;;4912158;29;20032;-93
2021/11/24 01:44:39;;;;;;;3.53;2.00;;;2.90;97.70;;;;;;4912893;29;20032;-94
2021/11/24 01:47:05;;;;;;;2.40;1.40;;;2.80;97.60;;;;;;4924482;29;20048;-93
2021/11/24 01:49:32;;;;;;;1.98;1.27;;;2.90;97.90;;;;;;4907117;29;20074;-93
2021/11/24 01:51:58;;;;;;;3.45;2.20;;;3.00;97.90;;;;;;4903150;29;20028;-93
2021/11/24 01:54:26;;;;;;;2.20;1.42;;;3.10;97.90;;;;;;4902965;29;20043;-93
2021/11/24 01:56:52;;;;;;;3.30;1.38;;;3.20;97.80;;;;;;4903169;29;20032;-93
2021/11/24 01:59:18;;;;;;;1.95;1.40;;;3.30;97.70;;;;;;4903308;29;20028;-93
2021/11/24 02:01:46;;;;;;;2.72;1.83;;;3.40;97.60;;;;;;4903858;29;20024;-93
2021/11/24 02:04:13;;;;;;;2.88;1.85;;;3.50;97.60;;;;;;4903603;29;20032;-92
2021/11/24 02:06:39;;;;;;;3.03;1.70;;;3.50;97.50;;;;;;4903534;29;20082;-93
2021/11/24 02:09:06;;;;;;;4.35;2.00;;;3.60;97.40;;;;;;4903695;29;20047;-93
2021/11/24 02:11:39;;;;;;;2.05;1.50;;;3.70;97.20;;;;;;4903055;29;20028;-93
2021/11/24 02:14:07;;;;;;;2.03;1.13;;;3.70;97.00;;;;;;4903341;29;20028;-92
2021/11/24 02:16:40;;;;;;;3.72;1.88;;;3.70;96.90;;;;;;4904634;29;20032;-93
2021/11/24 02:19:06;;;;;;;2.35;1.50;;;3.70;96.80;;;;;;4902901;29;20036;-93
2021/11/24 02:21:31;;;;;;;3.95;2.08;;;3.70;96.70;;;;;;4904315;29;20035;-93
2021/11/24 02:23:57;;;;;;;3.97;2.35;;;3.70;96.70;;;;;;4906102;29;20028;-93
2021/11/24 02:26:23;;;;;;;14.43;3.72;;;3.70;96.70;;;;;;4906538;29;20056;-93
2021/11/24 02:28:49;;;;;;;4.40;2.55;;;3.70;96.70;;;;;;4905835;29;20450;-93
2021/11/24 02:31:26;;;;;;;6.03;3.10;;;3.70;96.60;;;;;;4903881;29;20039;-93
2021/11/24 02:33:54;;;;;;;5.03;2.83;;;3.60;96.60;;;;;;4902844;29;20040;-92
2021/11/24 02:36:20;;;;;;;5.38;3.53;;;3.60;96.70;;;;;;4904585;29;20028;-93
2021/11/24 02:38:47;;;;;;;6.07;3.33;;;3.60;96.70;;;;;;4904829;29;20403;-93
2021/11/24 02:41:13;;;;;;;5.35;3.72;;;3.50;96.80;;;;;;4905348;29;20032;-93
2021/11/24 02:43:39;;;;;;;8.90;4.53;;;3.50;96.80;;;;;;4908477;29;20039;-93
2021/11/24 02:46:05;;;;;;;11.25;3.10;;;3.50;96.70;;;;;;4912158;29;20035;-93
2021/11/24 02:48:31;;;;;;;4.80;3.15;;;3.40;96.80;;;;;;4909730;29;20052;-93
2021/11/24 02:50:57;;;;;;;13.25;4.35;;;3.40;97.00;;;;;;4915837;29;20036;-93
2021/11/24 02:53:28;;;;;;;7.00;4.80;;;3.40;97.20;;;;;;4924377;29;20020;-93
2021/11/24 02:55:55;;;;;;;10.07;5.45;;;3.40;96.80;;;;;;4924597;29;20095;-94
2021/11/24 02:58:21;;;;;;;6.93;3.78;;;3.30;97.10;;;;;;4921316;29;20028;-93
2021/11/24 03:00:47;;;;;;;12.95;5.82;;;3.10;96.90;;;;;;4918020;29;20032;-93
2021/11/24 03:03:13;;;;;;;11.65;6.07;;;3.10;97.00;;;;;;4913917;29;20032;-93
2021/11/24 03:05:39;;;;;;;6.80;4.45;;;3.00;97.10;;;;;;4902690;29;20164;-93
2021/11/24 03:08:05;;;;;;;9.77;5.70;;;2.80;97.10;;;;;;4902121;29;20395;-93
2021/11/24 03:10:33;;;;;;;13.77;6.82;;;2.70;97.30;;;;;;4902066;29;20487;-93
2021/11/24 03:13:00;;;;;;;11.38;4.95;;;2.60;97.60;;;;;;4902455;29;20167;-93
2021/11/24 03:15:26;;;;;;;6.97;5.28;;;2.60;97.80;;;;;;4902741;29;20408;-93
2021/11/24 03:17:52;;;;;;;9.07;4.85;;;2.60;97.90;;;;;;4902576;29;20028;-93
2021/11/24 03:20:18;;;;;;;6.13;4.00;;;2.60;97.90;;;;;;4902966;29;20459;-93
2021/11/24 03:22:44;;;;;;;8.18;3.50;;;2.60;98.00;;;;;;4919827;29;20032;-93
2021/11/24 03:25:11;;;;;;;6.57;3.30;;;2.60;98.00;;;;;;4901895;29;20035;-93
2021/11/24 03:27:40;;;;;;;5.00;2.88;;;2.60;97.90;;;;;;4901768;29;20066;-92
2021/11/24 03:30:09;;;;;;;3.85;2.15;;;2.70;98.20;;;;;;4902127;29;20029;-93
2021/11/24 03:32:35;;;;;;;4.68;3.05;;;2.70;98.10;;;;;;4917280;29;20028;-93
2021/11/24 03:35:01;;;;;;;5.45;2.83;;;2.80;97.90;;;;;;4901418;29;20092;-93
2021/11/24 03:37:27;;;;;;;3.92;2.58;;;2.80;97.70;;;;;;4902237;29;20067;-93
2021/11/24 03:39:53;;;;;;;6.40;3.03;;;2.90;97.70;;;;;;4902345;29;20059;-93
2021/11/24 03:42:19;;;;;;;2.67;2.22;;;2.90;97.60;;;;;;4902255;29;20036;-93
2021/11/24 03:44:45;;;;;;;6.22;2.63;;;2.90;97.60;;;;;;4901438;29;20035;-93
2021/11/24 03:47:11;;;;;;;6.90;3.70;;;2.90;97.50;;;;;;4905067;29;20056;-93
2021/11/24 03:49:37;;;;;;;8.23;4.00;;;2.90;97.50;;;;;;4905555;29;20043;-93
2021/11/24 03:52:05;;;;;;;4.82;2.40;;;2.90;97.40;;;;;;4905313;29;20039;-93
2021/11/24 03:54:31;;;;;;;6.82;3.72;;;2.90;97.50;;;;;;4905532;29;20032;-93
2021/11/24 03:56:56;;;;;;;5.40;3.60;;;3.00;97.60;;;;;;4905592;29;20108;-93
2021/11/24 03:59:22;;;;;;;6.45;3.17;;;3.00;97.40;;;;;;4905189;29;20063;-93
2021/11/24 04:01:48;;;;;;;4.25;3.28;;;3.00;97.30;;;;;;4905350;29;20115;-93
2021/11/24 04:04:14;;;;;;;6.43;2.67;;;2.90;97.40;;;;;;4904842;29;20395;-93
2021/11/24 04:06:40;;;;;;;5.05;2.63;;;2.90;97.50;;;;;;4921587;29;20032;-93
2021/11/24 04:09:06;;;;;;;2.92;2.22;;;2.90;97.50;;;;;;4904721;29;20036;-93
2021/11/24 04:11:32;;;;;;;5.00;2.88;;;2.90;97.50;;;;;;4907453;29;20032;-93
2021/11/24 04:13:59;;;;;;;5.43;2.65;;;2.90;97.40;;;;;;4911356;29;20032;-93
2021/11/24 04:16:24;;;;;;;3.63;2.88;;;2.90;97.40;;;;;;4908993;29;20047;-93
2021/11/24 04:18:50;;;;;;;8.43;3.67;;;2.90;97.50;;;;;;4912209;29;20032;-93
2021/11/24 04:21:17;;;;;;;7.15;3.10;;;2.90;97.50;;;;;;4914913;29;20036;-92
2021/11/24 04:23:44;;;;;;;6.25;3.10;;;2.80;97.40;;;;;;4918515;29;20063;-93
2021/11/24 04:26:11;;;;;;;6.15;2.63;;;2.80;97.40;;;;;;4920830;29;20519;-93
2021/11/24 04:28:37;;;;;;;4.55;2.70;;;2.80;97.60;;;;;;4912006;29;20035;-93
2021/11/24 04:31:06;;;;;;;4.80;2.97;;;2.80;97.70;;;;;;4905023;29;20028;-93
2021/11/24 04:33:32;;;;;;;7.82;3.55;;;2.90;97.80;;;;;;4904251;29;20107;-93
2021/11/24 04:35:57;;;;;;;8.52;3.50;;;2.90;97.90;;;;;;4904373;29;20475;-93
2021/11/24 04:38:24;;;;;;;6.85;3.30;;;2.90;97.70;;;;;;4904402;29;20034;-93
2021/11/24 04:40:49;;;;;;;6.35;4.18;;;2.90;97.70;;;;;;4904556;29;20039;-93
2021/11/24 04:43:18;;;;;;;10.25;3.50;;;2.90;97.90;;;;;;4904791;29;20036;-93
2021/11/24 04:45:43;;;;;;;7.50;4.38;;;2.90;97.80;;;;;;4904824;29;20519;-93
2021/11/24 04:48:10;;;;;;;6.05;4.25;;;2.80;97.60;;;;;;4903757;29;20139;-92
2021/11/24 04:50:38;;;;;;;6.75;3.75;;;2.80;97.60;;;;;;4903728;29;20098;-93
2021/11/24 04:53:04;;;;;;;11.35;5.15;;;2.70;97.70;;;;;;4920692;29;20124;-93
2021/11/24 04:55:31;;;;;;;6.32;3.40;;;2.70;97.90;;;;;;4904030;29;20119;-93
2021/11/24 04:57:57;;;;;;;8.15;4.63;;;2.70;97.90;;;;;;4903413;29;20036;-93
2021/11/24 05:00:23;;;;;;;7.80;4.03;;;2.70;98.00;;;;;;4903703;29;20032;-93
2021/11/24 05:02:52;;;;;;;7.70;3.67;;;2.70;98.00;;;;;;4903952;29;20051;-93
2021/11/24 05:05:23;;;;;;;4.72;2.78;;;2.70;98.00;;;;;;4903872;29;20047;-93
2021/11/24 05:07:52;;;;;;;6.68;3.63;;;2.70;98.10;;;;;;4904211;29;20119;-93
2021/11/24 05:10:18;;;;;;;6.43;2.97;;;2.80;98.20;;;;;;4904332;29;20028;-93
2021/11/24 05:12:44;;;;;;;6.78;3.25;;;2.90;98.10;;;;;;4920948;29;20024;-93
2021/11/24 05:15:16;;;;;;;6.22;3.70;;;3.00;98.00;;;;;;4903959;29;20032;-93
2021/11/24 05:17:44;;;;;;;7.05;3.67;;;3.00;97.80;;;;;;4904628;29;20047;-93
2021/11/24 05:20:11;;;;;;;5.10;3.30;;;3.00;97.60;;;;;;4903729;29;20029;-93
2021/11/24 05:22:39;;;;;;;5.63;3.25;;;3.00;97.70;;;;;;4904355;29;20032;-93
2021/11/24 05:25:05;;;;;;;6.68;3.00;;;3.00;97.70;;;;;;4903728;29;20039;-94
2021/11/24 05:27:31;;;;;;;4.53;1.95;;;3.10;97.80;;;;;;4903983;29;20028;-93
2021/11/24 05:29:57;;;;;;;5.90;3.90;;;3.10;97.80;;;;;;4903522;29;20118;-93
2021/11/24 05:32:23;;;;;;;4.82;3.25;;;3.20;97.80;;;;;;4921022;29;20111;-93
2021/11/24 05:34:48;;;;;;;2.90;2.15;;;3.20;97.70;;;;;;4905873;29;20400;-93
2021/11/24 05:37:14;;;;;;;5.85;2.88;;;3.30;97.70;;;;;;4903642;29;20035;-94
2021/11/24 05:39:40;;;;;;;7.15;3.58;;;3.40;97.70;;;;;;4907532;29;20035;-93
2021/11/24 05:42:08;;;;;;;5.43;2.67;;;3.50;97.70;;;;;;4912807;29;20494;-93
2021/11/24 05:44:38;;;;;;;4.60;2.58;;;3.50;97.70;;;;;;4912899;29;20032;-93
2021/11/24 05:47:09;;;;;;;6.07;3.53;;;3.60;97.50;;;;;;4916003;29;20048;-93
2021/11/24 05:49:37;;;;;;;4.75;3.75;;;3.60;97.50;;;;;;4916013;29;20070;-93
2021/11/24 05:52:07;;;;;;;8.57;3.53;;;3.70;97.40;;;;;;4913365;29;20067;-93
2021/11/24 05:54:35;;;;;;;5.00;3.05;;;3.80;97.10;;;;;;4915233;29;20032;-94
2021/11/24 05:57:01;;;;;;;6.55;3.45;;;3.80;96.80;;;;;;4907113;29;20036;-94
2021/11/24 05:59:29;;;;;;;5.70;3.85;;;3.70;96.70;;;;;;4903636;29;20147;-94
2021/11/24 06:02:00;;;;;;;6.47;3.20;;;3.70;96.60;;;;;;4903486;29;20028;-94
2021/11/24 06:04:29;;;;;;;6.20;4.10;;;3.60;96.70;;;;;;4904497;29;20036;-94
2021/11/24 06:06:55;;;;;;;7.43;4.03;;;3.60;97.00;;;;;;4905233;29;20032;-94
2021/11/24 06:09:26;;;;;;;4.00;2.42;;;3.60;97.10;;;;;;4904019;29;20047;-93
2021/11/24 06:11:54;;;;;;;5.55;3.47;;;3.60;97.00;;;;;;4903747;29;20538;-93
2021/11/24 06:14:20;;;;;;;7.22;3.13;;;3.60;97.00;;;;;;4905658;29;20086;-94
2021/11/24 06:16:49;;;;;;;4.65;2.85;;;3.60;97.10;;;;;;4904856;29;20103;-94
2021/11/24 06:19:15;;;;;;;6.15;3.40;;;3.60;97.20;;;;;;4910684;29;20029;-92
2021/11/24 06:21:50;;;;;;;6.07;3.30;;;3.60;97.10;;;;;;4924219;29;20058;-93
2021/11/24 06:24:15;;;;;;;6.07;2.97;;;3.60;97.10;;;;;;4920109;29;20047;-94
2021/11/24 06:26:42;;;;;;;4.80;2.85;;;3.70;97.00;;;;;;4925028;29;20027;-94
2021/11/24 06:29:11;;;;;;;8.35;3.00;;;3.60;96.80;;;;;;4912937;29;20032;-93
2021/11/24 06:31:37;;;;;;;5.57;3.33;;;3.60;96.80;;;;;;4906361;29;20032;-94
2021/11/24 06:34:03;;;;;;;5.90;3.72;;;3.60;96.80;;;;;;4905776;29;20440;-93
2021/11/24 06:36:31;;;;;;;10.10;5.10;;;3.60;96.70;;;;;;4904022;29;20091;-93
2021/11/24 06:39:11;;;;;;;11.98;4.95;;;3.50;96.70;;;;;;4905992;29;20028;-93
2021/11/24 06:42:01;;;;;;;;;;;;;;;;;;;;;
2021/11/24 06:44:29;;;;;;;8.50;5.38;;;3.50;97.20;;;;;;4924559;29;20518;-93
2021/11/24 06:46:58;;;;;;;13.10;6.15;;;3.50;97.30;;;;;;4904502;29;20058;-94
2021/11/24 06:49:24;;;;;;;8.70;5.63;;;3.60;97.30;;;;;;4904831;29;20062;-93
2021/11/24 06:51:55;;;;;;;21.10;9.15;;;3.70;97.20;;;;;;4904308;29;20028;-92
2021/11/24 06:54:38;;;;;;;11.05;5.65;;;3.80;97.20;;;;;;4906467;29;20047;-94
2021/11/24 06:57:07;;;;;;;14.55;6.25;;;3.80;97.10;;;;;;4904177;29;20111;-92
2021/11/24 06:59:33;;;;;;;18.55;11.38;;;4.00;97.00;;;;;;4903678;29;20132;-92
2021/11/24 07:01:59;;;;;;;20.63;10.23;;;4.10;96.90;;;;;;4918540;29;20081;-93
2021/11/24 07:04:24;;;;;;;22.85;11.40;;;4.10;96.60;;;;;;4903379;29;20031;-93
2021/11/24 07:06:50;;;;;;;19.63;8.93;;;4.10;96.50;;;;;;4904322;29;20036;-93
2021/11/24 07:09:19;;;;;;;17.23;7.00;;;4.10;96.30;;;;;;4903305;29;20482;-93
2021/11/24 07:11:49;;;;;;;15.20;8.43;;;4.20;96.10;;;;;;4910570;29;20447;-93
2021/11/24 07:14:18;;;;;;;19.92;7.93;;;4.20;96.10;;;;;;4924144;29;20047;-94
2021/11/24 07:16:54;;;;;;;18.60;10.07;;;4.10;96.00;;;;;;4924135;29;20020;-92
2021/11/24 07:19:22;;;;;;;19.88;9.90;;;4.20;96.00;;;;;;4922608;29;20032;-92
2021/11/24 07:21:51;;;;;;;16.13;7.88;;;4.10;95.50;;;;;;4917307;29;20091;-93
2021/11/24 07:24:20;;;;;;;11.88;6.90;;;4.00;95.80;;;;;;4911737;29;20052;-93
2021/11/24 07:26:47;;;;;;;13.52;7.65;;;4.00;96.10;;;;;;4909503;29;20113;-93
2021/11/24 07:29:24;;;;;;;14.15;5.95;;;4.00;96.10;;;;;;4904230;29;20050;-93
2021/11/24 07:32:06;;;;;;;15.18;7.95;;;4.00;96.30;;;;;;4904059;29;20043;-93
2021/11/24 07:34:38;;;;;;;13.40;5.97;;;4.10;96.40;;;;;;4903118;29;20071;-92
2021/11/24 07:37:11;;;;;;;11.40;4.97;;;4.10;96.40;;;;;;4902841;29;20128;-92
2021/11/24 07:39:48;;;;;;;12.90;5.25;;;4.20;96.40;;;;;;4902780;29;20036;-92
2021/11/24 07:42:32;;;;;;;9.13;5.45;;;4.30;96.50;;;;;;4904231;29;20032;-92
2021/11/24 07:45:05;;;;;;;10.13;5.30;;;4.50;96.90;;;;;;4904128;29;20127;-93
2021/11/24 07:47:46;;;;;;;12.75;6.82;;;4.60;96.40;;;;;;4904672;29;20048;-93
2021/11/24 07:50:23;;;;;;;12.57;5.65;;;4.90;95.40;;;;;;4903078;29;20399;-92
2021/11/24 07:52:52;;;;;;;11.38;5.70;;;4.90;95.70;;;;;;4902381;29;20475;-93
2021/11/24 07:55:17;;;;;;;14.30;8.10;;;5.10;95.80;;;;;;4899786;29;20131;-92
2021/11/24 07:57:46;;;;;;;13.18;6.70;;;5.20;95.30;;;;;;4901339;29;20064;-92
2021/11/24 08:00:13;;;;;;;11.52;7.07;;;5.20;94.50;;;;;;4886443;29;20142;-93
2021/11/24 08:02:45;;;;;;;10.98;7.88;;;5.20;94.60;;;;;;4910747;29;20094;-92
2021/11/24 08:05:29;;;;;;;13.15;6.05;;;5.20;94.30;;;;;;4918915;29;20052;-91
2021/11/24 08:08:17;;;;;;;12.82;5.32;;;5.10;94.30;;;;;;4906149;29;20075;-92
2021/11/24 08:10:58;;;;;;;12.55;6.00;;;5.00;94.30;;;;;;4925263;29;20035;-90
2021/11/24 08:14:05;;;;;;;10.55;4.78;;;5.00;94.30;;;;;;4910976;29;20493;-92
2021/11/24 08:16:33;;;;;;;11.05;6.40;;;5.00;94.80;;;;;;4930848;29;20037;-94
2021/11/24 08:18:59;;;;;;;14.90;7.03;;;5.10;94.40;;;;;;4886541;29;20092;-91
2021/11/24 08:21:40;;;;;;;12.50;6.30;;;5.20;94.60;;;;;;4916166;29;20337;-92
2021/11/24 08:27:13;;;;;;;13.82;6.97;;;5.50;94.70;;;;;;4872276;29;20127;-93
2021/11/24 08:29:41;;;;;;;16.15;6.90;;;5.70;94.30;;;;;;4917115;29;20040;-95
2021/11/24 08:32:16;;;;;;;14.63;7.45;;;5.80;94.00;;;;;;4913467;29;20051;-93
2021/11/24 08:34:45;;;;;;;13.45;7.72;;;5.90;93.70;;;;;;4905969;29;20440;-91
2021/11/24 08:37:17;;;;;;;19.35;8.95;;;6.00;93.10;;;;;;4911245;29;20032;-93
2021/11/24 08:39:47;;;;;;;22.80;9.65;;;6.00;92.30;;;;;;4923343;29;20123;-93
2021/11/24 08:42:20;;;;;;;19.17;10.18;;;5.80;92.10;;;;;;4905984;29;20062;-94
2021/11/24 08:44:48;;;;;;;17.53;10.67;;;5.60;91.80;;;;;;4899376;29;20059;-94
2021/11/24 08:51:12;;;;;;;18.33;8.27;;;5.30;91.90;;;;;;4952664;29;20090;-95
2021/11/24 08:53:38;;;;;;;12.10;6.47;;;5.10;92.70;;;;;;4934647;29;20065;-92
2021/11/24 08:56:25;;;;;;;14.80;8.13;;;5.10;93.10;;;;;;4929456;29;20032;-94
2021/11/24 09:02:13;;;;;;;18.73;9.45;;;5.00;92.70;;;;;;4848473;29;20099;-93
2021/11/24 09:08:06;;;;;;;17.10;8.18;;;5.00;93.20;;;;;;4848017;29;20109;-94
2021/11/24 09:17:07;;;;;;;15.30;7.55;;;5.20;93.60;;;;;;4850594;29;20084;-95
2021/11/24 09:19:33;;;;;;;13.80;6.10;;;5.30;93.70;;;;;;4833148;29;20030;-93
2021/11/24 09:25:50;;;;;;;19.73;9.90;;;5.60;93.10;;;;;;4810736;29;20045;-92
2021/11/24 09:28:34;;;;;;;;;;;;;;;;;;;;;
2021/11/24 09:47:26;;;;;;;20.42;9.45;;;5.80;92.80;;;;;;4969310;28;20070;-92
2021/11/24 09:50:06;;;;;;;19.90;11.35;;;5.90;93.10;;;;;;4947595;28;20113;-92
2021/11/24 09:52:45;;;;;;;17.27;8.73;;;5.90;92.90;;;;;;4979552;28;20035;-94
2021/11/24 09:55:12;;;;;;;17.50;9.88;;;5.90;92.60;;;;;;4955731;28;20119;-95
2021/11/24 09:57:40;;;;;;;14.85;7.68;;;5.80;92.40;;;;;;4960628;28;20058;-93
2021/11/24 10:00:09;;;;;;;20.30;10.02;;;5.70;92.90;;;;;;4926754;29;20035;-92
2021/11/24 10:02:42;;;;;;;13.48;9.40;;;5.70;93.30;;;;;;4972444;28;20031;-92
2021/11/24 10:05:40;;;;;;;24.95;12.55;;;5.70;93.30;;;;;;4978314;28;20590;-92
2021/11/24 10:08:10;;;;;;;17.25;8.95;;;5.80;93.50;;;;;;4964164;28;20063;-93
2021/11/24 10:10:37;;;;;;;20.85;10.82;;;5.80;93.20;;;;;;4942605;29;20057;-92
2021/11/24 10:13:25;;;;;;;17.17;8.57;;;5.80;93.10;;;;;;4970087;28;20218;-91
2021/11/24 10:15:57;;;;;;;16.38;10.23;;;5.80;93.50;;;;;;4974219;28;20066;-93
2021/11/24 10:18:33;;;;;;;19.25;9.57;;;5.70;93.10;;;;;;4973656;28;20065;-93
2021/11/24 10:21:15;;;;;;;14.93;7.43;;;5.70;93.30;;;;;;4952669;28;20085;-92
2021/11/24 10:23:49;;;;;;;11.63;6.13;;;5.60;93.60;;;;;;4973132;28;20038;-92
2021/11/24 10:26:31;;;;;;;11.88;6.38;;;5.70;93.70;;;;;;4948913;29;20053;-91
2021/11/24 10:29:16;;;;;;;12.68;7.18;;;5.80;93.70;;;;;;4950869;29;20035;-91
2021/11/24 10:31:53;;;;;;;10.75;6.25;;;5.80;93.30;;;;;;4956173;29;20044;-91
2021/11/24 10:34:29;;;;;;;16.75;7.68;;;5.90;93.40;;;;;;4946750;29;20046;-92
2021/11/24 10:37:06;;;;;;;10.90;6.07;;;5.90;93.00;;;;;;4949040;29;20054;-92
2021/11/24 10:39:40;;;;;;;15.63;6.88;;;5.80;92.90;;;;;;4965626;28;20046;-90
2021/11/24 10:42:08;;;;;;;17.30;7.75;;;5.70;93.10;;;;;;4939832;29;20047;-89
2021/11/24 10:44:35;;;;;;;17.08;9.45;;;5.70;93.10;;;;;;4939280;29;20043;-89
2021/11/24 10:47:03;;;;;;;12.38;7.28;;;5.70;93.10;;;;;;4938901;28;20043;-89
2021/11/24 10:49:37;;;;;;;15.68;8.40;;;5.60;93.00;;;;;;4940531;29;20058;-89
2021/11/24 10:52:41;;;;;;;;;;;5.60;93.10;;;;;;4940471;29;20043;-89
2021/11/24 10:55:14;;;;;;;13.18;7.78;;;5.50;93.30;;;;;;4862658;29;19919;-89
2021/11/24 10:57:43;;;;;;;14.15;7.70;;;5.40;93.60;;;;;;4869919;29;20048;-87
2021/11/24 11:00:16;;;;;;;11.20;7.13;;;5.50;93.90;;;;;;4909345;29;20043;-88
2021/11/24 11:02:47;;;;;;;21.17;11.13;;;5.60;93.70;;;;;;4920426;29;20039;-89
2021/11/24 11:05:17;;;;;;;19.08;10.23;;;5.60;93.50;;;;;;4920661;29;20086;-91
2021/11/24 11:07:50;;;;;;;14.93;7.95;;;5.60;93.50;;;;;;4938855;29;20042;-91
2021/11/24 11:10:26;;;;;;;16.58;8.25;;;5.60;93.30;;;;;;4921420;29;20032;-90
2021/11/24 11:13:08;;;;;;;13.13;7.97;;;5.60;93.40;;;;;;4938109;29;20044;-91
2021/11/24 11:15:48;;;;;;;15.25;7.18;;;5.60;93.40;;;;;;4906084;29;20502;-91
2021/11/24 11:18:24;;;;;;;21.00;10.18;;;5.60;93.30;;;;;;4940084;29;20129;-92
2021/11/24 11:20:57;;;;;;;17.48;7.80;;;5.60;93.00;;;;;;4940145;29;20110;-90
2021/11/24 11:23:29;;;;;;;14.43;8.40;;;5.60;93.10;;;;;;4939948;29;20046;-93
2021/11/24 11:26:00;;;;;;;16.35;8.13;;;5.60;93.10;;;;;;4940381;29;20039;-91
2021/11/24 11:28:47;;;;;;;15.82;7.22;;;5.60;93.20;;;;;;4941228;29;20039;-91
2021/11/24 11:31:16;;;;;;;16.20;7.25;;;5.60;93.30;;;;;;4946733;29;20059;-90
2021/11/24 11:33:49;;;;;;;11.00;6.95;;;5.60;93.70;;;;;;4953906;29;20044;-91
2021/11/24 11:36:16;;;;;;;15.40;8.55;;;5.70;93.40;;;;;;4954307;29;20062;-91
2021/11/24 11:38:45;;;;;;;12.18;6.50;;;5.70;93.10;;;;;;4941769;29;20039;-92
2021/11/24 11:41:12;;;;;;;10.15;6.20;;;5.70;93.00;;;;;;4941857;29;20474;-92
2021/11/24 11:43:40;;;;;;;8.07;5.57;;;5.60;92.90;;;;;;4940935;29;20098;-92
2021/11/24 11:46:22;;;;;;;9.07;5.40;;;5.50;92.90;;;;;;4939853;29;20047;-93
2021/11/24 11:48:52;;;;;;;10.30;5.30;;;5.40;93.30;;;;;;4942443;29;20490;-92
2021/11/24 11:51:35;;;;;;;13.45;5.78;;;5.40;93.40;;;;;;4965160;28;20031;-92
2021/11/24 11:54:01;;;;;;;16.05;8.30;;;5.40;93.40;;;;;;4949597;29;20055;-91
2021/11/24 11:56:34;;;;;;;14.45;7.55;;;5.40;93.30;;;;;;4952792;29;20043;-90
2021/11/24 11:59:19;;;;;;;8.80;4.63;;;5.30;93.50;;;;;;4969456;28;20107;-91
2021/11/24 12:01:45;;;;;;;10.93;5.93;;;5.30;93.70;;;;;;4959330;29;20039;-88
2021/11/24 12:04:51;;;;;;;9.38;4.93;;;5.30;93.60;;;;;;4947538;29;20119;-91
2021/11/24 12:07:20;;;;;;;11.85;5.63;;;5.30;93.70;;;;;;4941688;29;20488;-91
2021/11/24 12:09:59;;;;;;;12.55;6.18;;;5.30;93.90;;;;;;4925069;29;20046;-91
2021/11/24 12:12:34;;;;;;;11.77;5.57;;;5.40;93.80;;;;;;4924152;29;20060;-89
2021/11/24 12:15:10;;;;;;;11.07;5.82;;;5.30;93.90;;;;;;4925282;29;20047;-90
2021/11/24 12:17:49;;;;;;;14.27;6.97;;;5.40;93.90;;;;;;4924177;29;20040;-90
2021/11/24 12:20:16;;;;;;;8.25;4.85;;;5.50;94.00;;;;;;4922623;29;20391;-90
2021/11/24 12:22:48;;;;;;;6.47;3.95;;;5.50;93.90;;;;;;4923705;29;20039;-90
2021/11/24 12:25:26;;;;;;;10.88;6.18;;;5.60;93.90;;;;;;4924142;29;20379;-91
2021/11/24 12:27:57;;;;;;;12.02;6.97;;;5.60;93.70;;;;;;4923654;29;20118;-90
2021/11/24 12:33:04;;;;;;;10.30;5.43;;;5.70;93.50;;;;;;4940179;29;20032;-90
2021/11/24 12:35:32;;;;;;;9.00;5.55;;;5.70;93.40;;;;;;4923122;29;20083;-91
2021/11/24 12:37:58;;;;;;;16.13;6.93;;;5.70;93.20;;;;;;4923470;29;20043;-89
2021/11/24 12:40:37;;;;;;;10.48;6.35;;;5.70;93.10;;;;;;4924839;29;20172;-90
2021/11/24 12:43:15;;;;;;;12.95;7.47;;;5.60;93.30;;;;;;4928047;29;20040;-91
2021/11/24 12:46:02;;;;;;;13.93;7.78;;;5.50;93.50;;;;;;4934885;29;20059;-90
2021/11/24 12:48:44;;;;;;;10.30;5.57;;;5.40;93.70;;;;;;4936325;29;20032;-90
2021/11/24 12:51:16;;;;;;;14.20;6.97;;;5.40;93.80;;;;;;4929210;29;20063;-90
2021/11/24 12:53:43;;;;;;;16.98;8.98;;;5.30;93.90;;;;;;4924816;29;20058;-90
2021/11/24 12:56:13;;;;;;;15.00;7.50;;;5.20;94.10;;;;;;4924734;29;20047;-89
2021/11/24 12:58:40;;;;;;;14.13;8.55;;;5.20;94.20;;;;;;4924160;29;20046;-90
2021/11/24 13:01:22;;;;;;;16.35;7.03;;;5.20;94.30;;;;;;4923421;29;20036;-90
2021/11/24 13:03:58;;;;;;;13.70;6.45;;;5.10;94.40;;;;;;4923290;29;20058;-91
2021/11/24 13:06:24;;;;;;;9.93;6.32;;;5.20;94.50;;;;;;4922536;29;20117;-90
2021/11/24 13:09:17;;;;;;;16.48;8.18;;;5.10;94.50;;;;;;4939491;29;20032;-90
2021/11/24 13:11:56;;;;;;;13.85;5.40;;;5.10;94.80;;;;;;4920622;29;20055;-90
2021/11/24 13:14:31;;;;;;;10.38;5.35;;;5.10;94.60;;;;;;4922087;29;20057;-90
2021/11/24 13:17:07;;;;;;;8.75;5.07;;;5.10;94.50;;;;;;4938884;29;20472;-90
2021/11/24 13:19:34;;;;;;;8.43;5.50;;;5.00;94.60;;;;;;4923641;29;20042;-91
2021/11/24 13:22:00;;;;;;;10.25;6.25;;;5.00;94.60;;;;;;4944860;29;20043;-90
2021/11/24 13:24:28;;;;;;;9.40;5.22;;;5.00;94.60;;;;;;4935959;29;20046;-90
2021/11/24 13:26:56;;;;;;;10.45;5.50;;;5.00;94.70;;;;;;4936150;29;20036;-91
2021/11/24 13:29:25;;;;;;;15.50;9.13;;;5.00;94.60;;;;;;4939231;29;20056;-91
2021/11/24 13:31:52;;;;;;;14.55;8.10;;;5.00;94.50;;;;;;4939235;29;20111;-91
2021/11/24 13:34:27;;;;;;;11.38;5.78;;;4.90;94.50;;;;;;4939778;29;20075;-90
2021/11/24 13:36:53;;;;;;;12.20;5.45;;;4.90;94.60;;;;;;4929749;29;20036;-90
2021/11/24 13:39:27;;;;;;;10.02;5.85;;;4.80;94.70;;;;;;4927238;29;20118;-89
2021/11/24 13:42:05;;;;;;;;;;;4.70;94.60;;;;;;4943306;29;20058;-91
2021/11/24 13:44:31;;;;;;;11.02;5.85;;;4.60;95.00;;;;;;4925344;29;19934;-91
2021/11/24 13:46:57;;;;;;;13.68;6.82;;;4.60;94.80;;;;;;4922532;29;20048;-91
2021/11/24 13:49:24;;;;;;;12.80;5.68;;;4.50;94.90;;;;;;4922995;29;20035;-91
2021/11/24 13:52:09;;;;;;;18.63;8.02;;;4.50;95.00;;;;;;4922610;29;20059;-91
2021/11/24 13:54:46;;;;;;;18.95;10.38;;;4.40;95.10;;;;;;4919557;29;20079;-91